関西国際空港の過去48時間の天気

関西国際空港 (Kansai intl)

現在時刻: 5/28 12:58 JST (5/28 03:58 UTC) 以下の時間は現地時間です。

過去48時間のMETAR気象情報
時間 風向 風速(m/s) 視程 気温(℃) 湿度(%) 気圧(hPa) 天気現象
28 12:30 西北西 3 10km以上 24 38 1008
28 12:00 北西 3 10km以上 23 50 1008
28 11:30 北西 4 10km以上 23 53 1008
28 11:00 北北西 3 10km以上 23 57 1008
28 10:30 北北西 3 10km以上 22 60 1008
28 10:00 3 10km以上 22 60 1008
28 09:30 3 10km以上 21 60 1008
28 09:00 4 10km以上 20 60 1009
28 08:30 北北東 4 10km以上 20 68 1008
28 08:00 北北東 4 10km以上 20 68 1008
28 07:30 北東 3 10km以上 19 68 1008
28 07:00 東北東 4 10km以上 19 68 1008
28 06:30 北東 4 10km以上 18 73 1008
28 06:00 北東 4 10km以上 18 73 1008
28 05:30 東北東 3 10km以上 17 72 1008
28 05:00 東北東 3 10km以上 18 68 1007
28 04:30 4 10km以上 18 73 1007
28 04:00 東北東 4 10km以上 18 73 1007
28 03:30 東北東 4 10km以上 19 68 1007
28 03:00 北東 6 10km以上 18 73 1008
28 02:30 東北東 5 10km以上 19 68 1007
28 02:00 東北東 5 10km以上 19 73 1007
28 01:30 東北東 4 10km以上 19 73 1007
28 01:00 5 10km以上 20 68 1007
28 00:30 5 10km以上 20 68 1007
28 00:00 東北東 5 10km以上 20 68 1007
27 23:30 東北東 6 10km以上 20 68 1007
27 23:00 北東 7 10km以上 20 68 1007
27 22:30 北東 8 10km以上 21 64 1007
27 22:00 北東 7 10km以上 21 69 1007
27 21:30 北東 7 10km以上 21 73 1007
27 21:00 北北東 5 10km以上 22 69 1006
27 20:30 不定 1 10km以上 22 65 1006
27 20:00 北東 2 10km以上 21 73 1006
27 19:30 北東 2 10km以上 21 73 1005
27 19:00 不定 1 10km以上 22 65 1005
27 18:30 不定 1 10km以上 22 69 1005
27 18:00 南東 2 10km以上 21 73 1005
27 17:30 南南東 3 10km以上 21 78 1005
27 17:00 2 10km以上 21 83 1005
27 16:30 2 10km以上 21 78 1005
27 16:00 南南西 3 10km以上 22 73 1005
27 15:30 南南西 3 10km以上 22 69 1005
27 15:00 3 10km以上 22 69 1005
27 14:30 2 10km以上 22 73 1005
27 14:00 南南東 3 10km以上 22 69 1006
27 13:30 西南西 2 10km以上 22 69 1006
27 13:00 南西 3 10km以上 22 73 1006
27 12:30 不定 2 10km以上 23 65 1007
27 12:00 南南西 3 10km以上 21 83 1006
27 11:30 南南西 3 10km以上 21 78 1007
27 11:00 西南西 2 10km以上 22 73 1007
27 10:30 西 3 10km以上 22 69 1007
27 10:00 西北西 3 10km以上 21 73 1007
27 09:30 西 3 10km以上 22 73 1007
27 09:00 西南西 3 10km以上 21 78 1007
27 08:30 南西 3 10km以上 21 83 1007
27 08:00 南南西 3 10km以上 20 88 1007
27 07:30 3 10km以上 19 94 1006
27 07:00 南南東 3 7000m 19 94 1007
27 06:30 南東 3 7000m 18 100 1007
27 06:00 不定 1 6000m 18 100 1007
27 05:30 不定 1 7000m 18 100 1007
27 05:00 北西 2 3600m 18 100 1006 弱い雨 もや
27 04:30 不定 1 2200m 18 100 1006 弱い雨 もや
27 04:00 2 1800m 18 100 1006 弱い雨 もや
27 03:30 北西 3 2300m 19 88 1006 弱い雨 もや
27 03:00 北北西 2 9000m 18 94 1006 弱い雨
27 02:30 北北西 2 4800m 19 94 1006 弱い雨 もや
27 02:00 北北西 2 6000m 19 94 1006
27 01:30 北北西 2 7000m 19 100 1007
27 01:00 不定 1 5000m 19 94 1007 もや
27 00:30 南南東 2 6000m 19 94 1007
27 00:00 南南東 2 6000m 19 94 1007
26 23:30 南東 3 9000m 19 94 1007
26 23:00 2 8000m 19 94 1008
26 22:30 不定 1 4500m 19 100 1008 弱いしゅう雨 もや
26 22:00 北西 3 3500m 19 100 1008 しゅう雨 もや
26 21:30 北北西 2 10km以上 20 94 1008 周辺でしゅう雨
26 21:00 東南東 1 10km以上 19 100 1008
26 20:30 南東 2 10km以上 19 100 1008
26 20:00 南東 3 10km以上 19 100 1008
26 19:30 南南東 2 10km以上 19 100 1008
26 19:00 南南東 3 9000m 19 100 1008
26 18:30 南南西 2 6000m 19 100 1008 弱いしゅう雨 もや
26 18:00 西南西 2 3500m 19 100 1008 しゅう雨 もや
26 17:30 西 3 3500m 20 94 1008 しゅう雨 もや
26 17:00 西 4 3500m 20 94 1008 強いしゅう雨 もや
26 16:30 西 3 4500m 20 94 1008 しゅう雨 もや
26 16:00 西北西 4 10km以上 21 88 1008 弱いしゅう雨
26 15:30 不定 1 10km以上 23 73 1007 弱いしゅう雨
26 15:00 西南西 2 10km以上 22 78 1007 弱いしゅう雨
26 14:30 西南西 3 10km以上 22 78 1007 弱いしゅう雨
26 14:00 西南西 2 10km以上 22 78 1007
26 13:30 西南西 2 10km以上 23 73 1007
26 13:00 西 3 10km以上 23 73 1008
RJBB 280330Z 29005KT 9999 FEW040 24/09 Q1008 NOSIG
RJBB 280300Z 31006KT 9999 FEW040 23/12 Q1008 NOSIG
RJBB 280230Z 32007KT 9999 FEW040 23/13 Q1008 BECMG 26006KT
RJBB 280200Z 33006KT 9999 FEW040 23/14 Q1008 BECMG 26006KT
RJBB 280130Z 34005KT 9999 FEW040 22/14 Q1008 BECMG 26006KT
RJBB 280100Z 35006KT 9999 FEW035 22/14 Q1008 NOSIG
RJBB 280030Z 36006KT CAVOK 21/13 Q1008 NOSIG
RJBB 280000Z 01007KT 9999 FEW050 20/12 Q1009 NOSIG
RJBB 272330Z 03007KT 9999 FEW050 20/14 Q1008 NOSIG
RJBB 272300Z 03007KT 9999 FEW025 SCT/// 20/14 Q1008 NOSIG
RJBB 272230Z 04006KT 9999 FEW025 BKN/// 19/13 Q1008 NOSIG
RJBB 272200Z 06007KT 030V110 9999 FEW025 BKN/// 19/13 Q1008 NOSIG
RJBB 272130Z 04008KT 9999 FEW025 BKN/// 18/13 Q1008 NOSIG
RJBB 272100Z 04008KT 9999 FEW030 BKN/// 18/13 Q1008 NOSIG
RJBB 272030Z AUTO 06006KT 9999 NSC 17/12 Q1008 NOSIG
RJBB 272000Z AUTO 07006KT 9999 NSC 18/12 Q1007 NOSIG
RJBB 271930Z AUTO 08007KT 9999 NCD 18/13 Q1007 NOSIG
RJBB 271900Z AUTO 07008KT 9999 NCD 18/13 Q1007 NOSIG
RJBB 271830Z AUTO 07008KT 9999 NCD 19/13 Q1007 NOSIG
RJBB 271800Z AUTO 05011KT 9999 NSC 18/13 Q1008 NOSIG
RJBB 271730Z AUTO 06010KT 9999 NSC 19/13 Q1007 NOSIG
RJBB 271700Z AUTO 06010KT 9999 NSC 19/14 Q1007 NOSIG
RJBB 271630Z AUTO 06008KT 9999 NSC 19/14 Q1007 NOSIG
RJBB 271600Z AUTO 08009KT 9999 NSC 20/14 Q1007 NOSIG
RJBB 271530Z AUTO 08009KT 9999 FEW039 20/14 Q1007 NOSIG
RJBB 271500Z AUTO 07010KT 9999 NCD 20/14 Q1007 NOSIG
RJBB 271430Z AUTO 06011KT 9999 NSC 20/14 Q1007 NOSIG
RJBB 271400Z AUTO 05013KT 9999 NSC 20/14 Q1007 NOSIG
RJBB 271330Z 05016KT 9999 FEW025 BKN/// 21/14 Q1007 NOSIG
RJBB 271300Z 04014KT 9999 FEW025 SCT060 BKN/// 21/15 Q1007 NOSIG
RJBB 271230Z 04014KT 9999 FEW025 SCT045 BKN/// 21/16 Q1007 NOSIG
RJBB 271200Z 03009KT 9999 FEW025 SCT045 BKN/// 22/16 Q1006 NOSIG
RJBB 271130Z VRB02KT 9999 FEW025 SCT040 BKN060 22/15 Q1006 BECMG 03008KT
RJBB 271100Z 05003KT 9999 FEW030 BKN/// 21/16 Q1006 NOSIG
RJBB 271030Z 04003KT 9999 FEW030 BKN/// 21/16 Q1005 NOSIG
RJBB 271000Z VRB01KT 9999 FEW030 BKN/// 22/15 Q1005 BECMG 36008KT
RJBB 270930Z VRB01KT 9999 FEW030 BKN/// 22/16 Q1005 BECMG 36008KT
RJBB 270900Z 14004KT 9999 FEW030 BKN/// 21/16 Q1005 BECMG 23005KT
RJBB 270830Z 16005KT 9999 FEW030 BKN/// 21/17 Q1005 NOSIG
RJBB 270800Z 18004KT 9999 FEW030 BKN/// 21/18 Q1005 NOSIG
RJBB 270730Z 19004KT 9999 FEW030 BKN/// 21/17 Q1005 NOSIG
RJBB 270700Z 21005KT 9999 FEW030 BKN/// 22/17 Q1005 NOSIG
RJBB 270630Z 21005KT 9999 FEW030 BKN/// 22/16 Q1005 NOSIG
RJBB 270600Z 17005KT 9999 FEW030 BKN/// 22/16 Q1005 NOSIG
RJBB 270530Z 17004KT 140V200 9999 FEW030 BKN/// 22/17 Q1005 NOSIG
RJBB 270500Z 15005KT 9999 FEW030 SCT150 BKN/// 22/16 Q1006 NOSIG
RJBB 270430Z 25004KT 200V290 9999 FEW030 SCT150 BKN/// 22/16 Q1006 NOSIG
RJBB 270400Z 22005KT 190V260 9999 FEW030 BKN/// 22/17 Q1006 NOSIG
RJBB 270330Z VRB04KT 9999 FEW030 SCT/// 23/16 Q1007 BECMG 24008KT
RJBB 270300Z 20006KT 9999 FEW030 BKN/// 21/18 Q1006 NOSIG
RJBB 270230Z 21005KT 180V250 9999 FEW025 BKN/// 21/17 Q1007 NOSIG
RJBB 270200Z 25004KT 210V280 9999 FEW025 BKN/// 22/17 Q1007 NOSIG
RJBB 270130Z 27005KT 230V290 9999 FEW025 BKN/// 22/16 Q1007 NOSIG
RJBB 270100Z 29005KT 9999 FEW025 BKN/// 21/16 Q1007 NOSIG
RJBB 270030Z 26006KT 9999 FEW025 BKN/// 22/17 Q1007 NOSIG
RJBB 270000Z 25006KT 9999 FEW020 BKN/// 21/17 Q1007 NOSIG
RJBB 262330Z 23005KT 200V260 9999 FEW020 BKN/// 21/18 Q1007 NOSIG
RJBB 262300Z 21005KT 9999 FEW015 BKN/// 20/18 Q1007 NOSIG
RJBB 262230Z 18006KT 9999 FEW010 SCT045 BKN/// 19/18 Q1006 NOSIG
RJBB 262200Z 16005KT 7000 FEW008 SCT035 BKN045 19/18 Q1007 NOSIG
RJBB 262130Z 14005KT 7000 FEW005 SCT025 BKN045 18/18 Q1007 BECMG 15004KT
RJBB 262100Z VRB01KT 6000 FEW003 SCT015 BKN025 18/18 Q1007 NOSIG
RJBB 262030Z AUTO VRB01KT 7000 BKN012 BKN022 BKN023 18/18 Q1007 BECMG TL2100 FEW010 BKN025
RJBB 262000Z AUTO 32004KT 3600 -RA BR FEW003 OVC011 18/18 Q1006 BECMG TL2030 6000 NSW FEW010 SCT030 BKN045
RJBB 261930Z AUTO VRB02KT 2200 -RA BR FEW002 SCT005 BKN017 18/18 Q1006 BECMG 6000 NSW
RJBB 261900Z AUTO 01003KT 1800 -RA BR SCT002 BKN010 BKN015 18/18 Q1006 NOSIG
RJBB 261830Z AUTO 32006KT 2300 -RA BR BKN012 BKN015 BKN046 19/17 Q1006 BECMG 34004KT 6000 NSW FEW012 SCT030 BKN050
RJBB 261800Z AUTO 33003KT 9000 -RA FEW005 SCT023 BKN033 18/17 Q1006 TEMPO 4000 -SHRA BR
RJBB 261730Z AUTO 34004KT 4800 -RA BR FEW013 BKN035 BKN050 19/18 Q1006 NOSIG
RJBB 261700Z AUTO 33004KT 6000 FEW016 BKN037 OVC060 19/18 Q1006 TEMPO 3000 -SHRA BR
RJBB 261630Z AUTO 33003KT 7000 OVC038 19/19 Q1007 NOSIG
RJBB 261600Z AUTO VRB02KT 5000 BR FEW007 OVC036 19/18 Q1007 NOSIG
RJBB 261530Z AUTO 15004KT 110V180 6000 OVC037 19/18 Q1007 NOSIG
RJBB 261500Z AUTO 16004KT 6000 FEW031 BKN037 OVC040 19/18 Q1007 NOSIG
RJBB 261430Z AUTO 13005KT 9000 FEW031 BKN035 OVC038 19/18 Q1007 NOSIG
RJBB 261400Z AUTO 09003KT 8000 FEW005 SCT033 BKN034 19/18 Q1008 NOSIG
RJBB 261330Z VRB01KT 4500 -SHRA BR FEW003 SCT015 BKN030 19/19 Q1008 BECMG 6000 -SHRA
RJBB 261300Z 32005KT 3500 R06R/P2000N R06L/P2000N SHRA BR FEW003 SCT015 BKN035 19/19 Q1008 BECMG 30004KT 8000 -SHRA
RJBB 261230Z 33004KT 9999 VCSH FEW008 SCT035 BKN045 20/19 Q1008 NOSIG
RJBB 261200Z 11001KT 9999 FEW008 SCT035 BKN045 19/19 Q1008 NOSIG
RJBB 261130Z 13003KT 9999 FEW008 SCT045 BKN060 19/19 Q1008 NOSIG
RJBB 261100Z 14005KT 9999 FEW008 SCT045 BKN060 19/19 Q1008 BECMG 15004KT
RJBB 261030Z 15004KT 9999 FEW008 SCT045 BKN060 19/19 Q1008 NOSIG
RJBB 261000Z 16005KT 9000 FEW008 SCT045 BKN060 19/19 Q1008 NOSIG
RJBB 260930Z 20003KT 180V250 6000 -SHRA BR FEW008 SCT030 BKN045 19/19 Q1008 NOSIG
RJBB 260900Z 25004KT 3500 R24L/P2000N R24R/2000N SHRA BR FEW008 SCT030 BKN045 19/19 Q1008 BECMG -SHRA BR
RJBB 260830Z 26006KT 3500 SHRA BR FEW008 BKN030 BKN045 20/19 Q1008 NOSIG
RJBB 260800Z 27007KT 3500 R24L/P2000N R24R/P2000N +SHRA BR FEW008 BKN030 BKN045 20/19 Q1008 NOSIG
RJBB 260730Z 27005KT 4500 SHRA BR FEW015 BKN035 BKN045 20/19 Q1008 NOSIG
RJBB 260700Z 29007KT 9999 -SHRA FEW020 SCT040 BKN050 21/19 Q1008 TEMPO 4000 SHRA BR
RJBB 260630Z VRB02KT 9999 -SHRA FEW020 SCT045 BKN060 23/18 Q1007 TEMPO 4000 SHRA BR
RJBB 260600Z 24003KT 9999 -SHRA FEW020 SCT045 BKN060 22/18 Q1007 NOSIG
RJBB 260530Z 24006KT 9999 -SHRA FEW020 SCT045 BKN070 22/18 Q1007 NOSIG
RJBB 260500Z 24004KT 9999 FEW020 SCT045 BKN080 22/18 Q1007 NOSIG
RJBB 260430Z 25004KT 9999 FEW020 SCT080 BKN120 23/18 Q1007 NOSIG
RJBB 260400Z 26006KT 9999 FEW025 SCT080 BKN120 23/18 Q1008 NOSIG